sensor_id;sensor_type;location;lat;lon;timestamp;P1;durP1;ratioP1;P2;durP2;ratioP2
3297;SDS011;1661;53.572;10.174;2023-07-29T00:02:00;3.33;;;3.13;;
3297;SDS011;1661;53.572;10.174;2023-07-29T00:04:26;7.13;;;4.60;;
3297;SDS011;1661;53.572;10.174;2023-07-29T00:06:53;4.80;;;4.40;;
3297;SDS011;1661;53.572;10.174;2023-07-29T00:09:22;4.27;;;3.93;;
3297;SDS011;1661;53.572;10.174;2023-07-29T00:11:48;3.83;;;3.53;;
3297;SDS011;1661;53.572;10.174;2023-07-29T00:14:15;6.27;;;4.97;;
3297;SDS011;1661;53.572;10.174;2023-07-29T00:16:42;4.53;;;4.23;;
3297;SDS011;1661;53.572;10.174;2023-07-29T00:19:10;4.30;;;3.87;;
3297;SDS011;1661;53.572;10.174;2023-07-29T00:21:36;4.57;;;4.17;;
3297;SDS011;1661;53.572;10.174;2023-07-29T00:24:03;4.27;;;3.90;;
3297;SDS011;1661;53.572;10.174;2023-07-29T00:26:31;5.27;;;4.87;;
3297;SDS011;1661;53.572;10.174;2023-07-29T00:28:58;4.13;;;3.83;;
3297;SDS011;1661;53.572;10.174;2023-07-29T00:31:25;4.70;;;4.30;;
3297;SDS011;1661;53.572;10.174;2023-07-29T00:33:52;6.43;;;5.30;;
3297;SDS011;1661;53.572;10.174;2023-07-29T00:36:19;5.53;;;4.37;;
3297;SDS011;1661;53.572;10.174;2023-07-29T00:38:45;4.27;;;3.97;;
3297;SDS011;1661;53.572;10.174;2023-07-29T00:41:12;5.17;;;4.77;;
3297;SDS011;1661;53.572;10.174;2023-07-29T00:43:41;5.60;;;5.10;;
3297;SDS011;1661;53.572;10.174;2023-07-29T00:46:08;7.03;;;5.20;;
3297;SDS011;1661;53.572;10.174;2023-07-29T00:48:35;6.90;;;6.10;;
3297;SDS011;1661;53.572;10.174;2023-07-29T00:51:02;6.23;;;5.73;;
3297;SDS011;1661;53.572;10.174;2023-07-29T00:53:29;6.67;;;6.17;;
3297;SDS011;1661;53.572;10.174;2023-07-29T00:55:56;5.57;;;5.07;;
3297;SDS011;1661;53.572;10.174;2023-07-29T00:58:23;4.43;;;4.13;;
3297;SDS011;1661;53.572;10.174;2023-07-29T01:00:51;5.70;;;5.20;;
3297;SDS011;1661;53.572;10.174;2023-07-29T01:03:20;5.07;;;4.60;;
3297;SDS011;1661;53.572;10.174;2023-07-29T01:05:50;5.30;;;4.90;;
3297;SDS011;1661;53.572;10.174;2023-07-29T01:08:28;5.73;;;5.30;;
3297;SDS011;1661;53.572;10.174;2023-07-29T01:11:08;6.40;;;5.83;;
3297;SDS011;1661;53.572;10.174;2023-07-29T01:13:44;6.37;;;5.77;;
3297;SDS011;1661;53.572;10.174;2023-07-29T01:16:20;7.47;;;5.90;;
3297;SDS011;1661;53.572;10.174;2023-07-29T01:18:52;5.83;;;5.40;;
3297;SDS011;1661;53.572;10.174;2023-07-29T01:21:21;5.20;;;4.37;;
3297;SDS011;1661;53.572;10.174;2023-07-29T01:23:53;6.93;;;6.43;;
3297;SDS011;1661;53.572;10.174;2023-07-29T01:26:23;7.70;;;7.10;;
3297;SDS011;1661;53.572;10.174;2023-07-29T01:28:51;6.37;;;5.97;;
3297;SDS011;1661;53.572;10.174;2023-07-29T01:31:19;6.77;;;5.83;;
3297;SDS011;1661;53.572;10.174;2023-07-29T01:33:57;7.60;;;6.90;;
3297;SDS011;1661;53.572;10.174;2023-07-29T01:36:29;5.93;;;5.33;;
3297;SDS011;1661;53.572;10.174;2023-07-29T01:39:01;6.07;;;5.40;;
3297;SDS011;1661;53.572;10.174;2023-07-29T01:41:29;7.30;;;6.57;;
3297;SDS011;1661;53.572;10.174;2023-07-29T01:43:56;5.90;;;5.40;;
3297;SDS011;1661;53.572;10.174;2023-07-29T01:46:23;6.97;;;6.37;;
3297;SDS011;1661;53.572;10.174;2023-07-29T01:48:50;7.47;;;6.77;;
3297;SDS011;1661;53.572;10.174;2023-07-29T01:51:16;6.80;;;6.27;;
3297;SDS011;1661;53.572;10.174;2023-07-29T01:53:43;8.33;;;6.50;;
3297;SDS011;1661;53.572;10.174;2023-07-29T01:56:12;7.77;;;7.17;;
3297;SDS011;1661;53.572;10.174;2023-07-29T01:58:38;8.47;;;7.50;;
3297;SDS011;1661;53.572;10.174;2023-07-29T02:01:05;7.77;;;6.97;;
3297;SDS011;1661;53.572;10.174;2023-07-29T02:03:32;6.73;;;6.23;;
3297;SDS011;1661;53.572;10.174;2023-07-29T02:05:59;11.10;;;8.43;;
3297;SDS011;1661;53.572;10.174;2023-07-29T02:08:25;8.17;;;7.47;;
3297;SDS011;1661;53.572;10.174;2023-07-29T02:10:53;9.20;;;8.40;;
3297;SDS011;1661;53.572;10.174;2023-07-29T02:13:23;8.53;;;7.50;;
3297;SDS011;1661;53.572;10.174;2023-07-29T02:15:49;8.50;;;7.43;;
3297;SDS011;1661;53.572;10.174;2023-07-29T02:18:16;11.30;;;10.20;;
3297;SDS011;1661;53.572;10.174;2023-07-29T02:20:43;11.33;;;10.20;;
3297;SDS011;1661;53.572;10.174;2023-07-29T02:23:14;9.50;;;8.43;;
3297;SDS011;1661;53.572;10.174;2023-07-29T02:25:41;7.70;;;6.67;;
3297;SDS011;1661;53.572;10.174;2023-07-29T02:28:08;10.23;;;9.00;;
3297;SDS011;1661;53.572;10.174;2023-07-29T02:30:36;9.60;;;8.70;;
3297;SDS011;1661;53.572;10.174;2023-07-29T02:33:03;12.63;;;10.60;;
3297;SDS011;1661;53.572;10.174;2023-07-29T02:35:30;9.50;;;8.57;;
3297;SDS011;1661;53.572;10.174;2023-07-29T02:37:56;10.47;;;9.50;;
3297;SDS011;1661;53.572;10.174;2023-07-29T02:40:23;11.50;;;10.20;;
3297;SDS011;1661;53.572;10.174;2023-07-29T02:42:51;12.77;;;10.70;;
3297;SDS011;1661;53.572;10.174;2023-07-29T02:45:18;12.10;;;10.43;;
3297;SDS011;1661;53.572;10.174;2023-07-29T02:47:46;11.53;;;10.40;;
3297;SDS011;1661;53.572;10.174;2023-07-29T02:50:13;17.40;;;11.20;;
3297;SDS011;1661;53.572;10.174;2023-07-29T02:52:40;22.33;;;10.00;;
3297;SDS011;1661;53.572;10.174;2023-07-29T02:55:07;11.97;;;10.77;;
3297;SDS011;1661;53.572;10.174;2023-07-29T02:57:34;12.90;;;11.70;;
3297;SDS011;1661;53.572;10.174;2023-07-29T03:00:00;12.03;;;10.70;;
3297;SDS011;1661;53.572;10.174;2023-07-29T03:02:28;12.57;;;11.37;;
3297;SDS011;1661;53.572;10.174;2023-07-29T03:04:56;12.70;;;11.40;;
3297;SDS011;1661;53.572;10.174;2023-07-29T03:07:23;12.50;;;11.20;;
3297;SDS011;1661;53.572;10.174;2023-07-29T03:09:50;13.23;;;12.03;;
3297;SDS011;1661;53.572;10.174;2023-07-29T03:12:16;12.97;;;11.77;;
3297;SDS011;1661;53.572;10.174;2023-07-29T03:14:44;13.00;;;11.50;;
3297;SDS011;1661;53.572;10.174;2023-07-29T03:17:14;12.67;;;11.43;;
3297;SDS011;1661;53.572;10.174;2023-07-29T03:19:41;17.23;;;12.70;;
3297;SDS011;1661;53.572;10.174;2023-07-29T03:22:09;13.80;;;12.27;;
3297;SDS011;1661;53.572;10.174;2023-07-29T03:24:36;13.03;;;11.87;;
3297;SDS011;1661;53.572;10.174;2023-07-29T03:27:03;14.13;;;12.70;;
3297;SDS011;1661;53.572;10.174;2023-07-29T03:29:31;14.50;;;13.20;;
3297;SDS011;1661;53.572;10.174;2023-07-29T03:31:58;16.17;;;13.43;;
3297;SDS011;1661;53.572;10.174;2023-07-29T03:34:25;18.03;;;12.43;;
3297;SDS011;1661;53.572;10.174;2023-07-29T03:36:52;15.63;;;14.13;;
3297;SDS011;1661;53.572;10.174;2023-07-29T03:39:20;16.37;;;14.67;;
3297;SDS011;1661;53.572;10.174;2023-07-29T03:41:46;18.63;;;15.20;;
3297;SDS011;1661;53.572;10.174;2023-07-29T03:44:14;16.10;;;14.47;;
3297;SDS011;1661;53.572;10.174;2023-07-29T03:46:41;17.77;;;15.87;;
3297;SDS011;1661;53.572;10.174;2023-07-29T03:49:07;19.77;;;15.97;;
3297;SDS011;1661;53.572;10.174;2023-07-29T03:51:34;19.07;;;17.13;;
3297;SDS011;1661;53.572;10.174;2023-07-29T03:54:01;20.17;;;17.30;;
3297;SDS011;1661;53.572;10.174;2023-07-29T03:56:29;20.30;;;17.60;;
3297;SDS011;1661;53.572;10.174;2023-07-29T03:59:01;18.97;;;17.20;;
3297;SDS011;1661;53.572;10.174;2023-07-29T04:01:29;20.60;;;16.60;;
3297;SDS011;1661;53.572;10.174;2023-07-29T04:03:56;18.80;;;15.67;;
3297;SDS011;1661;53.572;10.174;2023-07-29T04:06:22;26.00;;;19.10;;
3297;SDS011;1661;53.572;10.174;2023-07-29T04:08:49;20.87;;;18.37;;
3297;SDS011;1661;53.572;10.174;2023-07-29T04:11:16;21.23;;;18.93;;
3297;SDS011;1661;53.572;10.174;2023-07-29T04:13:44;21.60;;;18.37;;
3297;SDS011;1661;53.572;10.174;2023-07-29T04:16:11;18.73;;;16.80;;
3297;SDS011;1661;53.572;10.174;2023-07-29T04:18:38;23.53;;;19.70;;
3297;SDS011;1661;53.572;10.174;2023-07-29T04:21:05;24.87;;;21.13;;
3297;SDS011;1661;53.572;10.174;2023-07-29T04:23:31;22.70;;;17.93;;
3297;SDS011;1661;53.572;10.174;2023-07-29T04:25:58;20.73;;;18.53;;
3297;SDS011;1661;53.572;10.174;2023-07-29T04:28:25;23.90;;;21.30;;
3297;SDS011;1661;53.572;10.174;2023-07-29T04:30:53;23.20;;;20.70;;
3297;SDS011;1661;53.572;10.174;2023-07-29T04:33:20;27.80;;;21.97;;
3297;SDS011;1661;53.572;10.174;2023-07-29T04:35:47;25.70;;;20.90;;
3297;SDS011;1661;53.572;10.174;2023-07-29T04:38:14;39.43;;;25.60;;
3297;SDS011;1661;53.572;10.174;2023-07-29T04:40:41;28.40;;;23.30;;
3297;SDS011;1661;53.572;10.174;2023-07-29T04:43:08;28.10;;;24.73;;
3297;SDS011;1661;53.572;10.174;2023-07-29T04:45:35;30.70;;;25.17;;
3297;SDS011;1661;53.572;10.174;2023-07-29T04:48:03;28.97;;;22.10;;
3297;SDS011;1661;53.572;10.174;2023-07-29T04:50:30;25.43;;;22.83;;
3297;SDS011;1661;53.572;10.174;2023-07-29T04:52:57;24.67;;;21.07;;
3297;SDS011;1661;53.572;10.174;2023-07-29T04:55:23;28.80;;;25.33;;
3297;SDS011;1661;53.572;10.174;2023-07-29T04:57:50;27.70;;;23.90;;
3297;SDS011;1661;53.572;10.174;2023-07-29T05:00:17;30.10;;;25.40;;
3297;SDS011;1661;53.572;10.174;2023-07-29T05:02:44;33.27;;;26.50;;
3297;SDS011;1661;53.572;10.174;2023-07-29T05:05:12;30.80;;;24.80;;
3297;SDS011;1661;53.572;10.174;2023-07-29T05:07:39;31.10;;;25.60;;
3297;SDS011;1661;53.572;10.174;2023-07-29T05:10:06;37.07;;;26.97;;
3297;SDS011;1661;53.572;10.174;2023-07-29T05:12:34;32.07;;;25.70;;
3297;SDS011;1661;53.572;10.174;2023-07-29T05:15:00;30.33;;;27.00;;
3297;SDS011;1661;53.572;10.174;2023-07-29T05:17:27;35.10;;;29.13;;
3297;SDS011;1661;53.572;10.174;2023-07-29T05:19:54;35.73;;;29.70;;
3297;SDS011;1661;53.572;10.174;2023-07-29T05:22:22;38.60;;;31.10;;
3297;SDS011;1661;53.572;10.174;2023-07-29T05:24:50;38.97;;;31.40;;
3297;SDS011;1661;53.572;10.174;2023-07-29T05:27:16;37.60;;;31.77;;
3297;SDS011;1661;53.572;10.174;2023-07-29T05:29:43;36.93;;;31.83;;
3297;SDS011;1661;53.572;10.174;2023-07-29T05:32:10;37.07;;;30.20;;
3297;SDS011;1661;53.572;10.174;2023-07-29T05:34:37;40.47;;;34.33;;
3297;SDS011;1661;53.572;10.174;2023-07-29T05:37:04;44.43;;;36.40;;
3297;SDS011;1661;53.572;10.174;2023-07-29T05:39:32;40.83;;;31.87;;
3297;SDS011;1661;53.572;10.174;2023-07-29T05:41:59;41.90;;;33.10;;
3297;SDS011;1661;53.572;10.174;2023-07-29T05:44:27;38.50;;;29.13;;
3297;SDS011;1661;53.572;10.174;2023-07-29T05:46:55;38.27;;;31.43;;
3297;SDS011;1661;53.572;10.174;2023-07-29T05:49:22;36.33;;;29.60;;
3297;SDS011;1661;53.572;10.174;2023-07-29T05:51:49;42.87;;;31.97;;
3297;SDS011;1661;53.572;10.174;2023-07-29T05:54:18;34.80;;;30.50;;
3297;SDS011;1661;53.572;10.174;2023-07-29T05:56:46;40.30;;;34.30;;
3297;SDS011;1661;53.572;10.174;2023-07-29T05:59:13;44.60;;;34.43;;
3297;SDS011;1661;53.572;10.174;2023-07-29T06:01:40;34.83;;;30.87;;
3297;SDS011;1661;53.572;10.174;2023-07-29T06:04:07;36.23;;;30.27;;
3297;SDS011;1661;53.572;10.174;2023-07-29T06:06:33;48.93;;;38.27;;
3297;SDS011;1661;53.572;10.174;2023-07-29T06:09:00;52.43;;;37.53;;
3297;SDS011;1661;53.572;10.174;2023-07-29T06:11:27;43.70;;;37.50;;
3297;SDS011;1661;53.572;10.174;2023-07-29T06:13:55;49.37;;;39.83;;
3297;SDS011;1661;53.572;10.174;2023-07-29T06:16:22;52.10;;;38.13;;
3297;SDS011;1661;53.572;10.174;2023-07-29T06:18:48;46.07;;;35.17;;
3297;SDS011;1661;53.572;10.174;2023-07-29T06:21:17;41.10;;;34.73;;
3297;SDS011;1661;53.572;10.174;2023-07-29T06:23:45;43.23;;;35.13;;
3297;SDS011;1661;53.572;10.174;2023-07-29T06:26:12;41.23;;;36.50;;
3297;SDS011;1661;53.572;10.174;2023-07-29T06:28:39;40.63;;;35.57;;
3297;SDS011;1661;53.572;10.174;2023-07-29T06:31:07;40.53;;;33.67;;
3297;SDS011;1661;53.572;10.174;2023-07-29T06:33:34;38.20;;;30.40;;
3297;SDS011;1661;53.572;10.174;2023-07-29T06:36:00;33.03;;;29.50;;
3297;SDS011;1661;53.572;10.174;2023-07-29T06:38:27;36.80;;;30.60;;
3297;SDS011;1661;53.572;10.174;2023-07-29T06:40:54;34.83;;;31.17;;
3297;SDS011;1661;53.572;10.174;2023-07-29T06:43:21;36.90;;;32.90;;
3297;SDS011;1661;53.572;10.174;2023-07-29T06:45:48;30.27;;;26.43;;
3297;SDS011;1661;53.572;10.174;2023-07-29T06:48:16;32.73;;;28.67;;
3297;SDS011;1661;53.572;10.174;2023-07-29T06:50:43;34.37;;;28.10;;
3297;SDS011;1661;53.572;10.174;2023-07-29T06:53:10;35.37;;;29.10;;
3297;SDS011;1661;53.572;10.174;2023-07-29T06:55:37;28.20;;;25.27;;
3297;SDS011;1661;53.572;10.174;2023-07-29T06:58:04;27.53;;;24.53;;
3297;SDS011;1661;53.572;10.174;2023-07-29T07:00:31;28.50;;;24.50;;
3297;SDS011;1661;53.572;10.174;2023-07-29T07:02:57;32.60;;;29.10;;
3297;SDS011;1661;53.572;10.174;2023-07-29T07:05:26;30.03;;;26.90;;
3297;SDS011;1661;53.572;10.174;2023-07-29T07:07:52;27.47;;;24.40;;
3297;SDS011;1661;53.572;10.174;2023-07-29T07:10:19;30.50;;;26.47;;
3297;SDS011;1661;53.572;10.174;2023-07-29T07:12:46;38.70;;;28.07;;
3297;SDS011;1661;53.572;10.174;2023-07-29T07:15:13;35.17;;;26.60;;
3297;SDS011;1661;53.572;10.174;2023-07-29T07:17:39;29.70;;;26.50;;
3297;SDS011;1661;53.572;10.174;2023-07-29T07:20:07;28.30;;;25.40;;
3297;SDS011;1661;53.572;10.174;2023-07-29T07:22:35;29.70;;;26.50;;
3297;SDS011;1661;53.572;10.174;2023-07-29T07:25:02;32.80;;;23.60;;
3297;SDS011;1661;53.572;10.174;2023-07-29T07:27:29;30.87;;;27.77;;
3297;SDS011;1661;53.572;10.174;2023-07-29T07:29:56;26.43;;;23.60;;
3297;SDS011;1661;53.572;10.174;2023-07-29T07:32:23;27.33;;;24.53;;
3297;SDS011;1661;53.572;10.174;2023-07-29T07:34:49;30.17;;;27.27;;
3297;SDS011;1661;53.572;10.174;2023-07-29T07:37:16;26.43;;;23.73;;
3297;SDS011;1661;53.572;10.174;2023-07-29T07:39:44;31.93;;;28.63;;
3297;SDS011;1661;53.572;10.174;2023-07-29T07:42:11;26.73;;;24.20;;
3297;SDS011;1661;53.572;10.174;2023-07-29T07:44:38;28.10;;;24.20;;
3297;SDS011;1661;53.572;10.174;2023-07-29T07:47:04;25.30;;;22.77;;
3297;SDS011;1661;53.572;10.174;2023-07-29T07:49:31;23.93;;;21.43;;
3297;SDS011;1661;53.572;10.174;2023-07-29T07:51:58;24.97;;;21.67;;
3297;SDS011;1661;53.572;10.174;2023-07-29T07:54:25;31.73;;;21.57;;
3297;SDS011;1661;53.572;10.174;2023-07-29T07:56:53;25.23;;;22.60;;
3297;SDS011;1661;53.572;10.174;2023-07-29T07:59:20;23.63;;;21.10;;
3297;SDS011;1661;53.572;10.174;2023-07-29T08:01:47;18.60;;;16.80;;
3297;SDS011;1661;53.572;10.174;2023-07-29T08:04:13;19.87;;;17.73;;
3297;SDS011;1661;53.572;10.174;2023-07-29T08:06:40;24.57;;;18.90;;
3297;SDS011;1661;53.572;10.174;2023-07-29T08:09:07;22.07;;;16.80;;
3297;SDS011;1661;53.572;10.174;2023-07-29T08:11:34;16.20;;;14.80;;
3297;SDS011;1661;53.572;10.174;2023-07-29T08:14:02;17.03;;;15.20;;
3297;SDS011;1661;53.572;10.174;2023-07-29T08:16:29;18.23;;;16.33;;
3297;SDS011;1661;53.572;10.174;2023-07-29T08:18:55;17.57;;;14.20;;
3297;SDS011;1661;53.572;10.174;2023-07-29T08:21:22;24.23;;;16.90;;
3297;SDS011;1661;53.572;10.174;2023-07-29T08:23:49;22.40;;;15.67;;
3297;SDS011;1661;53.572;10.174;2023-07-29T08:26:16;16.50;;;14.70;;
3297;SDS011;1661;53.572;10.174;2023-07-29T08:28:42;15.73;;;13.40;;
3297;SDS011;1661;53.572;10.174;2023-07-29T08:31:11;17.17;;;13.50;;
3297;SDS011;1661;53.572;10.174;2023-07-29T08:33:37;18.50;;;14.63;;
3297;SDS011;1661;53.572;10.174;2023-07-29T08:36:04;17.10;;;14.67;;
3297;SDS011;1661;53.572;10.174;2023-07-29T08:38:31;14.20;;;13.00;;
3297;SDS011;1661;53.572;10.174;2023-07-29T08:40:59;13.33;;;12.10;;
3297;SDS011;1661;53.572;10.174;2023-07-29T08:43:36;13.87;;;12.60;;
3297;SDS011;1661;53.572;10.174;2023-07-29T08:46:05;15.10;;;13.53;;
3297;SDS011;1661;53.572;10.174;2023-07-29T08:48:36;12.73;;;11.03;;
3297;SDS011;1661;53.572;10.174;2023-07-29T08:51:06;13.63;;;12.17;;
3297;SDS011;1661;53.572;10.174;2023-07-29T08:53:35;14.57;;;12.97;;
3297;SDS011;1661;53.572;10.174;2023-07-29T08:56:02;24.80;;;14.00;;
3297;SDS011;1661;53.572;10.174;2023-07-29T08:58:29;16.10;;;13.70;;
3297;SDS011;1661;53.572;10.174;2023-07-29T09:00:57;16.57;;;13.50;;
3297;SDS011;1661;53.572;10.174;2023-07-29T09:03:23;14.63;;;13.20;;
3297;SDS011;1661;53.572;10.174;2023-07-29T09:05:51;13.93;;;12.60;;
3297;SDS011;1661;53.572;10.174;2023-07-29T09:08:20;12.73;;;11.53;;
3297;SDS011;1661;53.572;10.174;2023-07-29T09:10:47;14.33;;;12.87;;
3297;SDS011;1661;53.572;10.174;2023-07-29T09:13:14;12.67;;;11.57;;
3297;SDS011;1661;53.572;10.174;2023-07-29T09:15:41;14.80;;;13.23;;
3297;SDS011;1661;53.572;10.174;2023-07-29T09:18:09;14.77;;;13.27;;
3297;SDS011;1661;53.572;10.174;2023-07-29T09:20:36;11.93;;;10.73;;
3297;SDS011;1661;53.572;10.174;2023-07-29T09:23:06;12.67;;;11.53;;
3297;SDS011;1661;53.572;10.174;2023-07-29T09:25:35;11.63;;;10.60;;
3297;SDS011;1661;53.572;10.174;2023-07-29T09:28:08;11.60;;;10.50;;
3297;SDS011;1661;53.572;10.174;2023-07-29T09:30:37;13.57;;;12.33;;
3297;SDS011;1661;53.572;10.174;2023-07-29T09:33:04;13.70;;;12.30;;
3297;SDS011;1661;53.572;10.174;2023-07-29T09:35:32;12.87;;;11.53;;
3297;SDS011;1661;53.572;10.174;2023-07-29T09:38:00;14.70;;;13.20;;
3297;SDS011;1661;53.572;10.174;2023-07-29T09:40:28;11.70;;;10.80;;
3297;SDS011;1661;53.572;10.174;2023-07-29T09:43:01;12.23;;;11.20;;
3297;SDS011;1661;53.572;10.174;2023-07-29T09:45:29;16.23;;;14.03;;
3297;SDS011;1661;53.572;10.174;2023-07-29T09:47:56;11.70;;;10.20;;
3297;SDS011;1661;53.572;10.174;2023-07-29T09:50:24;12.80;;;11.70;;
3297;SDS011;1661;53.572;10.174;2023-07-29T09:52:51;11.40;;;10.40;;
3297;SDS011;1661;53.572;10.174;2023-07-29T09:55:19;11.40;;;10.40;;
3297;SDS011;1661;53.572;10.174;2023-07-29T09:57:49;10.57;;;9.77;;
3297;SDS011;1661;53.572;10.174;2023-07-29T10:00:19;15.57;;;13.50;;
3297;SDS011;1661;53.572;10.174;2023-07-29T10:02:46;11.87;;;10.87;;
3297;SDS011;1661;53.572;10.174;2023-07-29T10:05:14;10.47;;;9.57;;
3297;SDS011;1661;53.572;10.174;2023-07-29T10:07:41;12.40;;;11.10;;
3297;SDS011;1661;53.572;10.174;2023-07-29T10:10:08;12.40;;;11.30;;
3297;SDS011;1661;53.572;10.174;2023-07-29T10:12:35;13.67;;;12.43;;
3297;SDS011;1661;53.572;10.174;2023-07-29T10:15:04;15.97;;;13.57;;
3297;SDS011;1661;53.572;10.174;2023-07-29T10:17:33;14.97;;;13.40;;
3297;SDS011;1661;53.572;10.174;2023-07-29T10:20:01;11.80;;;10.60;;
3297;SDS011;1661;53.572;10.174;2023-07-29T10:22:32;12.53;;;11.37;;
3297;SDS011;1661;53.572;10.174;2023-07-29T10:25:02;10.90;;;9.87;;
3297;SDS011;1661;53.572;10.174;2023-07-29T10:27:32;10.10;;;9.30;;
3297;SDS011;1661;53.572;10.174;2023-07-29T10:30:12;9.27;;;8.47;;
3297;SDS011;1661;53.572;10.174;2023-07-29T10:32:41;8.33;;;7.53;;
3297;SDS011;1661;53.572;10.174;2023-07-29T10:35:09;7.60;;;6.60;;
3297;SDS011;1661;53.572;10.174;2023-07-29T10:37:36;11.43;;;7.87;;
3297;SDS011;1661;53.572;10.174;2023-07-29T10:40:05;6.43;;;5.93;;
3297;SDS011;1661;53.572;10.174;2023-07-29T10:42:34;6.47;;;5.97;;
3297;SDS011;1661;53.572;10.174;2023-07-29T10:45:09;4.70;;;4.40;;
3297;SDS011;1661;53.572;10.174;2023-07-29T10:47:45;5.07;;;4.57;;
3297;SDS011;1661;53.572;10.174;2023-07-29T10:50:17;5.30;;;4.30;;
3297;SDS011;1661;53.572;10.174;2023-07-29T10:52:46;4.20;;;3.90;;
3297;SDS011;1661;53.572;10.174;2023-07-29T10:55:28;4.50;;;4.03;;
3297;SDS011;1661;53.572;10.174;2023-07-29T10:58:05;3.20;;;3.00;;
3297;SDS011;1661;53.572;10.174;2023-07-29T11:00:35;4.00;;;3.70;;
3297;SDS011;1661;53.572;10.174;2023-07-29T11:03:02;5.40;;;3.83;;
3297;SDS011;1661;53.572;10.174;2023-07-29T11:05:42;4.73;;;4.10;;
3297;SDS011;1661;53.572;10.174;2023-07-29T11:08:16;4.33;;;4.03;;
3297;SDS011;1661;53.572;10.174;2023-07-29T11:10:44;4.23;;;4.00;;
3297;SDS011;1661;53.572;10.174;2023-07-29T11:13:25;5.27;;;4.70;;
3297;SDS011;1661;53.572;10.174;2023-07-29T11:15:55;3.60;;;3.30;;
3297;SDS011;1661;53.572;10.174;2023-07-29T11:18:24;3.50;;;3.20;;
3297;SDS011;1661;53.572;10.174;2023-07-29T11:20:53;6.57;;;4.70;;
3297;SDS011;1661;53.572;10.174;2023-07-29T11:23:20;3.80;;;3.43;;
3297;SDS011;1661;53.572;10.174;2023-07-29T11:25:54;3.63;;;3.30;;
3297;SDS011;1661;53.572;10.174;2023-07-29T11:28:21;4.00;;;3.80;;
3297;SDS011;1661;53.572;10.174;2023-07-29T11:30:49;3.73;;;3.53;;
3297;SDS011;1661;53.572;10.174;2023-07-29T11:33:18;3.63;;;3.33;;
3297;SDS011;1661;53.572;10.174;2023-07-29T11:35:46;5.13;;;4.63;;
3297;SDS011;1661;53.572;10.174;2023-07-29T11:38:14;4.87;;;4.30;;
3297;SDS011;1661;53.572;10.174;2023-07-29T11:40:42;4.20;;;3.90;;
3297;SDS011;1661;53.572;10.174;2023-07-29T11:43:09;7.80;;;4.40;;
3297;SDS011;1661;53.572;10.174;2023-07-29T11:45:44;3.37;;;3.13;;
3297;SDS011;1661;53.572;10.174;2023-07-29T11:48:11;4.40;;;4.10;;
3297;SDS011;1661;53.572;10.174;2023-07-29T11:50:39;3.53;;;3.30;;
3297;SDS011;1661;53.572;10.174;2023-07-29T11:53:06;4.40;;;4.10;;
3297;SDS011;1661;53.572;10.174;2023-07-29T11:55:33;4.50;;;4.10;;
3297;SDS011;1661;53.572;10.174;2023-07-29T11:58:00;4.60;;;4.10;;
3297;SDS011;1661;53.572;10.174;2023-07-29T12:00:27;3.83;;;3.17;;
3297;SDS011;1661;53.572;10.174;2023-07-29T12:02:54;3.93;;;3.63;;
3297;SDS011;1661;53.572;10.174;2023-07-29T12:05:22;5.20;;;4.80;;
3297;SDS011;1661;53.572;10.174;2023-07-29T12:07:51;6.50;;;5.40;;
3297;SDS011;1661;53.572;10.174;2023-07-29T12:10:18;5.50;;;4.40;;
3297;SDS011;1661;53.572;10.174;2023-07-29T12:12:46;4.80;;;4.50;;
3297;SDS011;1661;53.572;10.174;2023-07-29T12:15:14;4.67;;;4.30;;
3297;SDS011;1661;53.572;10.174;2023-07-29T12:17:51;5.27;;;4.77;;
3297;SDS011;1661;53.572;10.174;2023-07-29T12:20:20;5.93;;;5.30;;
3297;SDS011;1661;53.572;10.174;2023-07-29T12:22:52;6.27;;;5.70;;
3297;SDS011;1661;53.572;10.174;2023-07-29T12:25:19;5.13;;;4.73;;
3297;SDS011;1661;53.572;10.174;2023-07-29T12:27:46;4.60;;;4.30;;
3297;SDS011;1661;53.572;10.174;2023-07-29T12:30:13;4.50;;;3.90;;
3297;SDS011;1661;53.572;10.174;2023-07-29T12:32:44;4.10;;;3.80;;
3297;SDS011;1661;53.572;10.174;2023-07-29T12:35:11;4.77;;;4.37;;
3297;SDS011;1661;53.572;10.174;2023-07-29T12:37:38;4.17;;;3.87;;
3297;SDS011;1661;53.572;10.174;2023-07-29T12:40:20;4.83;;;4.43;;
3297;SDS011;1661;53.572;10.174;2023-07-29T12:42:50;4.60;;;4.30;;
3297;SDS011;1661;53.572;10.174;2023-07-29T12:45:17;4.87;;;4.27;;
3297;SDS011;1661;53.572;10.174;2023-07-29T12:47:46;4.27;;;3.97;;
3297;SDS011;1661;53.572;10.174;2023-07-29T12:50:13;5.73;;;3.70;;
3297;SDS011;1661;53.572;10.174;2023-07-29T12:52:40;3.77;;;3.50;;
3297;SDS011;1661;53.572;10.174;2023-07-29T12:55:07;3.33;;;3.07;;
3297;SDS011;1661;53.572;10.174;2023-07-29T12:57:39;4.40;;;4.10;;
3297;SDS011;1661;53.572;10.174;2023-07-29T13:00:08;3.90;;;3.60;;
3297;SDS011;1661;53.572;10.174;2023-07-29T13:02:35;4.43;;;4.13;;
3297;SDS011;1661;53.572;10.174;2023-07-29T13:05:02;3.47;;;2.80;;
3297;SDS011;1661;53.572;10.174;2023-07-29T13:07:30;3.50;;;3.13;;
3297;SDS011;1661;53.572;10.174;2023-07-29T13:09:57;4.37;;;3.67;;
3297;SDS011;1661;53.572;10.174;2023-07-29T13:12:23;4.03;;;2.97;;
3297;SDS011;1661;53.572;10.174;2023-07-29T13:14:52;3.10;;;2.80;;
3297;SDS011;1661;53.572;10.174;2023-07-29T13:17:18;3.30;;;3.10;;
3297;SDS011;1661;53.572;10.174;2023-07-29T13:19:46;5.10;;;2.53;;
3297;SDS011;1661;53.572;10.174;2023-07-29T13:22:13;3.83;;;3.53;;
3297;SDS011;1661;53.572;10.174;2023-07-29T13:24:40;3.40;;;3.10;;
3297;SDS011;1661;53.572;10.174;2023-07-29T13:27:07;5.33;;;3.00;;
3297;SDS011;1661;53.572;10.174;2023-07-29T13:29:33;5.07;;;3.20;;
3297;SDS011;1661;53.572;10.174;2023-07-29T13:32:02;4.10;;;3.00;;
3297;SDS011;1661;53.572;10.174;2023-07-29T13:34:29;3.43;;;3.03;;
3297;SDS011;1661;53.572;10.174;2023-07-29T13:36:56;3.00;;;2.70;;
3297;SDS011;1661;53.572;10.174;2023-07-29T13:39:22;2.70;;;2.50;;
3297;SDS011;1661;53.572;10.174;2023-07-29T13:41:49;3.60;;;2.00;;
3297;SDS011;1661;53.572;10.174;2023-07-29T13:44:16;3.10;;;2.90;;
3297;SDS011;1661;53.572;10.174;2023-07-29T13:46:43;2.50;;;2.30;;
3297;SDS011;1661;53.572;10.174;2023-07-29T13:49:11;3.00;;;2.80;;
3297;SDS011;1661;53.572;10.174;2023-07-29T13:51:37;2.33;;;2.13;;
3297;SDS011;1661;53.572;10.174;2023-07-29T13:54:04;3.07;;;2.80;;
3297;SDS011;1661;53.572;10.174;2023-07-29T13:56:31;4.30;;;3.57;;
3297;SDS011;1661;53.572;10.174;2023-07-29T13:58:58;9.90;;;3.33;;
3297;SDS011;1661;53.572;10.174;2023-07-29T14:01:24;2.80;;;2.60;;
3297;SDS011;1661;53.572;10.174;2023-07-29T14:03:51;4.33;;;3.47;;
3297;SDS011;1661;53.572;10.174;2023-07-29T14:06:19;7.43;;;2.80;;
3297;SDS011;1661;53.572;10.174;2023-07-29T14:08:46;4.13;;;3.20;;
3297;SDS011;1661;53.572;10.174;2023-07-29T14:11:13;5.13;;;2.80;;
3297;SDS011;1661;53.572;10.174;2023-07-29T14:13:40;3.40;;;3.10;;
3297;SDS011;1661;53.572;10.174;2023-07-29T14:16:06;4.00;;;2.73;;
3297;SDS011;1661;53.572;10.174;2023-07-29T14:18:33;3.07;;;2.33;;
3297;SDS011;1661;53.572;10.174;2023-07-29T14:21:00;3.30;;;3.00;;
3297;SDS011;1661;53.572;10.174;2023-07-29T14:23:28;4.50;;;3.03;;
3297;SDS011;1661;53.572;10.174;2023-07-29T14:25:55;3.73;;;2.90;;
3297;SDS011;1661;53.572;10.174;2023-07-29T14:28:22;3.10;;;2.90;;
3297;SDS011;1661;53.572;10.174;2023-07-29T14:30:48;4.60;;;4.20;;
3297;SDS011;1661;53.572;10.174;2023-07-29T14:33:15;3.60;;;3.03;;
3297;SDS011;1661;53.572;10.174;2023-07-29T14:35:42;4.63;;;4.27;;
3297;SDS011;1661;53.572;10.174;2023-07-29T14:38:09;3.40;;;3.10;;
3297;SDS011;1661;53.572;10.174;2023-07-29T14:40:37;3.10;;;2.33;;
3297;SDS011;1661;53.572;10.174;2023-07-29T14:43:04;3.90;;;3.60;;
3297;SDS011;1661;53.572;10.174;2023-07-29T14:45:31;3.03;;;2.83;;
3297;SDS011;1661;53.572;10.174;2023-07-29T14:47:57;5.53;;;2.70;;
3297;SDS011;1661;53.572;10.174;2023-07-29T14:50:24;2.37;;;2.17;;